createdAt,value
2023-04-12T00:00:46.705Z,10.47
2023-04-12T00:03:13.141Z,10.18
2023-04-12T00:05:39.535Z,9.88
2023-04-12T00:08:06.191Z,9.90
2023-04-12T00:10:32.568Z,10.09
2023-04-12T00:12:58.923Z,10.22
2023-04-12T00:15:25.250Z,10.31
2023-04-12T00:17:51.675Z,10.25
2023-04-12T00:20:18.148Z,10.16
2023-04-12T00:22:45.009Z,10.00
2023-04-12T00:25:11.608Z,10.11
2023-04-12T00:27:38.989Z,10.15
2023-04-12T00:30:07.326Z,10.19
2023-04-12T00:32:33.753Z,10.36
2023-04-12T00:35:00.284Z,10.47
2023-04-12T00:37:26.656Z,10.53
2023-04-12T00:39:52.989Z,10.71
2023-04-12T00:42:19.306Z,10.69
2023-04-12T00:44:45.693Z,10.75
2023-04-12T00:47:12.096Z,10.84
2023-04-12T00:49:38.474Z,11.01
2023-04-12T00:52:14.469Z,11.15
2023-04-12T00:54:42.948Z,11.21
2023-04-12T00:57:09.857Z,11.29
2023-04-12T00:59:36.267Z,11.29
2023-04-12T01:02:03.134Z,11.19
2023-04-12T01:04:29.605Z,11.09
2023-04-12T01:07:19.020Z,11.07
2023-04-12T01:10:08.158Z,11.17
2023-04-12T01:12:57.431Z,11.25
2023-04-12T01:15:26.221Z,11.14
2023-04-12T01:18:09.838Z,11.05
2023-04-12T01:20:48.257Z,11.14
2023-04-12T01:23:41.294Z,11.20
2023-04-12T01:26:26.547Z,11.24
2023-04-12T01:28:54.607Z,10.59
2023-04-12T01:31:21.637Z,10.15
2023-04-12T01:33:50.414Z,10.36
2023-04-12T01:36:19.848Z,10.63
2023-04-12T01:38:46.831Z,10.85
2023-04-12T01:41:13.614Z,10.86
2023-04-12T01:43:42.886Z,10.83
2023-04-12T01:46:11.951Z,10.86
2023-04-12T01:48:39.263Z,10.99
2023-04-12T01:51:18.637Z,11.11
2023-04-12T01:54:03.864Z,11.15
2023-04-12T01:56:34.503Z,11.21
2023-04-12T01:59:02.150Z,11.23
2023-04-12T02:01:29.277Z,11.15
2023-04-12T02:03:59.134Z,11.25
2023-04-12T02:06:27.499Z,11.24
2023-04-12T02:08:59.835Z,11.22
2023-04-12T02:11:26.247Z,11.05
2023-04-12T02:13:52.664Z,10.77
2023-04-12T02:16:20.501Z,10.97
2023-04-12T02:18:47.479Z,11.08
2023-04-12T02:21:13.836Z,11.14
2023-04-12T02:23:41.745Z,11.22
2023-04-12T02:26:08.103Z,11.21
2023-04-12T02:28:34.636Z,11.23
2023-04-12T02:31:01.112Z,11.17
2023-04-12T02:33:30.809Z,11.07
2023-04-12T02:35:57.306Z,11.08
2023-04-12T02:38:23.849Z,11.14
2023-04-12T02:40:50.430Z,11.16
2023-04-12T02:43:16.792Z,11.17
2023-04-12T02:45:43.140Z,11.07
2023-04-12T02:48:09.609Z,11.14
2023-04-12T02:50:37.157Z,11.17
2023-04-12T02:53:03.503Z,11.27
2023-04-12T02:55:30.483Z,11.20
2023-04-12T02:57:57.274Z,11.08
2023-04-12T03:00:23.907Z,11.11
2023-04-12T03:02:53.479Z,11.09
2023-04-12T03:05:20.160Z,11.12
2023-04-12T03:07:46.512Z,10.95
2023-04-12T03:10:13.149Z,10.83
2023-04-12T03:12:39.589Z,10.89
2023-04-12T03:15:06.454Z,11.04
2023-04-12T03:17:32.814Z,10.93
2023-04-12T03:20:09.599Z,10.99
2023-04-12T03:22:37.178Z,11.07
2023-04-12T03:25:05.233Z,11.10
2023-04-12T03:27:31.753Z,11.16
2023-04-12T03:29:58.134Z,11.13
2023-04-12T03:32:24.937Z,11.19
2023-04-12T03:34:51.287Z,11.09
2023-04-12T03:37:18.060Z,10.99
2023-04-12T03:39:47.723Z,10.92
2023-04-12T03:42:29.378Z,11.03
2023-04-12T03:44:58.504Z,11.09
2023-04-12T03:47:24.891Z,11.19
2023-04-12T03:50:06.068Z,11.18
2023-04-12T03:52:37.308Z,11.27
2023-04-12T03:55:05.709Z,11.22
2023-04-12T03:57:32.033Z,11.26
2023-04-12T03:59:58.383Z,10.98
2023-04-12T04:02:25.477Z,11.08
2023-04-12T04:04:52.093Z,10.86
2023-04-12T04:07:18.463Z,10.48
2023-04-12T04:09:44.863Z,10.67
2023-04-12T04:12:11.196Z,10.77
2023-04-12T04:14:37.534Z,10.88
2023-04-12T04:17:03.878Z,10.99
2023-04-12T04:19:30.211Z,11.00
2023-04-12T04:21:56.707Z,11.05
2023-04-12T04:24:25.102Z,11.03
2023-04-12T04:26:54.128Z,10.94
2023-04-12T04:29:20.579Z,11.02
2023-04-12T04:31:47.162Z,11.07
2023-04-12T04:34:13.654Z,10.87
2023-04-12T04:36:41.475Z,10.86
2023-04-12T04:39:07.816Z,10.68
2023-04-12T04:41:41.292Z,10.65
2023-04-12T04:44:11.219Z,9.38
2023-04-12T04:46:38.130Z,9.38
2023-04-12T04:49:05.424Z,9.76
2023-04-12T04:51:32.450Z,9.92
2023-04-12T04:53:59.188Z,9.54
2023-04-12T04:56:26.106Z,9.78
2023-04-12T04:58:53.985Z,10.10
2023-04-12T05:01:25.638Z,9.47
2023-04-12T05:03:52.198Z,9.78
2023-04-12T05:06:18.608Z,10.08
2023-04-12T05:08:45.276Z,10.11
2023-04-12T05:11:11.591Z,10.03
2023-04-12T05:13:38.198Z,10.22
2023-04-12T05:16:08.138Z,10.34
2023-04-12T05:18:34.650Z,9.99
2023-04-12T05:21:05.299Z,9.72
2023-04-12T05:23:37.136Z,9.74
2023-04-12T05:26:04.241Z,9.74
2023-04-12T05:28:30.766Z,9.72
2023-04-12T05:30:57.368Z,9.74
2023-04-12T05:33:23.813Z,9.41
2023-04-12T05:35:50.273Z,9.75
2023-04-12T05:38:16.612Z,10.07
2023-04-12T05:40:44.029Z,10.20
2023-04-12T05:43:14.292Z,10.38
2023-04-12T05:45:41.755Z,10.48
2023-04-12T05:48:08.721Z,10.54
2023-04-12T05:50:35.709Z,10.58
2023-04-12T05:53:02.776Z,10.68
2023-04-12T05:55:29.884Z,10.69
2023-04-12T05:57:57.523Z,10.69
2023-04-12T06:00:24.176Z,10.74
2023-04-12T06:02:52.134Z,10.78
2023-04-12T06:05:18.628Z,10.80
2023-04-12T06:07:47.975Z,10.92
2023-04-12T06:10:18.352Z,11.04
2023-04-12T06:12:44.882Z,11.05
2023-04-12T06:15:11.438Z,11.06
2023-04-12T06:17:38.224Z,11.17
2023-04-12T06:20:09.525Z,11.07
2023-04-12T06:22:36.963Z,10.81
2023-04-12T06:25:03.809Z,10.82
2023-04-12T06:27:30.246Z,10.58
2023-04-12T06:29:57.115Z,10.12
2023-04-12T06:32:23.806Z,9.91
2023-04-12T06:34:50.363Z,9.69
2023-04-12T06:37:16.709Z,9.75
2023-04-12T06:39:43.101Z,9.60
2023-04-12T06:42:09.499Z,9.57
2023-04-12T06:44:35.982Z,9.46
2023-04-12T06:47:02.494Z,9.71
2023-04-12T06:49:28.940Z,9.88
2023-04-12T06:51:55.317Z,10.03
2023-04-12T06:54:21.718Z,9.98
2023-04-12T06:56:48.173Z,10.01
2023-04-12T06:59:14.586Z,9.97
2023-04-12T07:01:41.932Z,9.85
2023-04-12T07:04:10.967Z,9.90
2023-04-12T07:06:37.372Z,9.88
2023-04-12T07:09:04.008Z,9.96
2023-04-12T07:11:31.603Z,9.92
2023-04-12T07:13:59.095Z,9.96
2023-04-12T07:16:25.637Z,10.04
2023-04-12T07:18:52.013Z,10.14
2023-04-12T07:21:18.504Z,10.06
2023-04-12T07:23:46.421Z,10.23
2023-04-12T07:26:12.747Z,10.48
2023-04-12T07:28:39.410Z,10.48
2023-04-12T07:31:06.983Z,10.20
2023-04-12T07:33:34.765Z,10.34
2023-04-12T07:36:01.974Z,10.32
2023-04-12T07:38:28.445Z,10.12
2023-04-12T07:40:55.645Z,10.11
2023-04-12T07:43:22.601Z,10.09
2023-04-12T07:45:49.321Z,10.22
2023-04-12T07:48:16.001Z,10.26
2023-04-12T07:50:42.345Z,10.30
2023-04-12T07:53:26.572Z,10.13
2023-04-12T07:55:53.827Z,10.13
2023-04-12T07:58:22.020Z,10.39
2023-04-12T08:00:49.127Z,10.41
2023-04-12T08:03:17.293Z,10.43
2023-04-12T08:05:44.300Z,10.66
2023-04-12T08:08:11.586Z,10.70
2023-04-12T08:10:38.754Z,10.69
2023-04-12T08:13:06.588Z,10.67
2023-04-12T08:15:33.286Z,10.76
2023-04-12T08:17:59.712Z,10.93
2023-04-12T08:20:26.073Z,10.99
2023-04-12T08:22:52.725Z,10.99
2023-04-12T08:25:19.060Z,11.11
2023-04-12T08:27:45.901Z,11.14
2023-04-12T08:30:13.294Z,11.13
2023-04-12T08:32:39.673Z,11.19
2023-04-12T08:35:06.482Z,11.06
2023-04-12T08:37:33.325Z,11.17
2023-04-12T08:40:04.564Z,11.24
2023-04-12T08:42:31.814Z,11.36
2023-04-12T08:44:58.245Z,11.45
2023-04-12T08:47:24.677Z,11.28
2023-04-12T08:49:51.078Z,11.32
2023-04-12T08:52:17.500Z,11.37
2023-04-12T08:54:43.903Z,11.29
2023-04-12T08:57:10.730Z,11.41
2023-04-12T08:59:39.214Z,11.50
2023-04-12T09:02:05.878Z,11.57
2023-04-12T09:04:32.439Z,11.63
2023-04-12T09:06:58.927Z,11.77
2023-04-12T09:09:42.351Z,11.90
2023-04-12T09:12:09.386Z,11.96
2023-04-12T09:14:35.932Z,12.07
2023-04-12T09:17:02.365Z,12.22
2023-04-12T09:19:36.069Z,12.30
2023-04-12T09:22:02.691Z,12.51
2023-04-12T09:24:29.462Z,12.55
2023-04-12T09:27:07.304Z,12.67
2023-04-12T09:29:34.228Z,12.70
2023-04-12T09:32:09.105Z,12.74
2023-04-12T09:34:36.557Z,12.75
2023-04-12T09:37:16.655Z,12.90
2023-04-12T09:39:43.236Z,12.92
2023-04-12T09:42:29.275Z,12.99
2023-04-12T09:44:58.437Z,13.18
2023-04-12T09:47:40.885Z,13.32
2023-04-12T09:50:09.450Z,13.41
2023-04-12T09:52:38.161Z,13.56
2023-04-12T09:55:11.231Z,13.77
2023-04-12T09:57:42.408Z,13.79
2023-04-12T10:00:20.085Z,13.89
2023-04-12T10:02:50.984Z,14.02
2023-04-12T10:05:20.348Z,14.16
2023-04-12T10:07:47.543Z,14.15
2023-04-12T10:10:16.514Z,14.11
2023-04-12T10:12:45.632Z,14.07
2023-04-12T10:15:13.597Z,13.87
2023-04-12T10:17:58.288Z,13.74
2023-04-12T10:20:28.168Z,13.86
2023-04-12T10:22:56.289Z,13.84
2023-04-12T10:25:25.047Z,13.91
2023-04-12T10:27:51.651Z,14.06
2023-04-12T10:30:27.083Z,14.07
2023-04-12T10:33:02.496Z,14.19
2023-04-12T10:35:30.372Z,14.23
2023-04-12T10:38:01.110Z,14.24
2023-04-12T10:40:28.646Z,14.25
2023-04-12T10:43:23.096Z,14.37
2023-04-12T10:45:50.372Z,13.99
2023-04-12T10:48:32.416Z,13.93
2023-04-12T10:51:28.526Z,13.94
2023-04-12T10:54:17.625Z,13.74
2023-04-12T10:56:45.998Z,13.75
2023-04-12T10:59:16.374Z,13.83
2023-04-12T11:02:08.857Z,13.65
2023-04-12T11:04:36.063Z,13.90
2023-04-12T11:07:11.416Z,14.03
2023-04-12T11:09:42.933Z,13.72
2023-04-12T11:12:16.555Z,13.11
2023-04-12T11:14:48.936Z,13.21
2023-04-12T11:17:15.771Z,13.40
2023-04-12T11:19:53.576Z,13.40
2023-04-12T11:22:23.739Z,13.43
2023-04-12T11:24:52.427Z,13.44
2023-04-12T11:27:20.744Z,13.50
2023-04-12T11:29:53.593Z,13.53
2023-04-12T11:32:21.529Z,13.63
2023-04-12T11:34:48.022Z,13.93
2023-04-12T11:37:15.052Z,14.09
2023-04-12T11:39:43.661Z,14.26
2023-04-12T11:42:18.466Z,14.11
2023-04-12T11:47:17.030Z,14.52
2023-04-12T11:49:57.477Z,14.64
2023-04-12T11:52:31.909Z,14.61
2023-04-12T11:55:04.938Z,14.73
2023-04-12T11:57:31.337Z,14.77
2023-04-12T12:00:01.200Z,14.88
2023-04-12T12:02:33.073Z,14.30
2023-04-12T12:05:03.515Z,13.69
2023-04-12T12:07:30.734Z,13.44
2023-04-12T12:09:57.715Z,13.54
2023-04-12T12:12:24.123Z,13.83
2023-04-12T12:14:50.895Z,14.17
2023-04-12T12:17:17.442Z,14.21
2023-04-12T12:19:45.928Z,13.85
2023-04-12T12:22:22.108Z,13.29
2023-04-12T12:24:59.257Z,13.29
2023-04-12T12:27:35.165Z,13.43
2023-04-12T12:30:04.216Z,13.49
2023-04-12T12:32:35.035Z,13.50
2023-04-12T12:35:01.696Z,13.47
2023-04-12T12:37:30.182Z,13.40
2023-04-12T12:40:15.348Z,13.34
2023-04-12T12:42:50.603Z,13.34
2023-04-12T12:45:18.613Z,13.41
2023-04-12T12:48:02.496Z,13.21
2023-04-12T12:50:31.451Z,13.17
2023-04-12T12:53:00.496Z,13.30
2023-04-12T12:55:27.945Z,13.29
2023-04-12T12:58:07.501Z,13.26
2023-04-12T13:00:34.930Z,13.24
2023-04-12T13:03:01.783Z,13.17
2023-04-12T13:05:28.562Z,13.13
2023-04-12T13:07:54.901Z,13.03
2023-04-12T13:10:21.458Z,13.20
2023-04-12T13:12:48.077Z,13.23
2023-04-12T13:17:43.906Z,13.28
2023-04-12T13:20:10.594Z,13.39
2023-04-12T13:22:36.932Z,13.56
2023-04-12T13:25:04.063Z,13.56
2023-04-12T13:27:30.397Z,13.60
2023-04-12T13:29:56.816Z,13.65
2023-04-12T13:32:23.220Z,13.62
2023-04-12T13:34:49.695Z,13.63
2023-04-12T13:37:16.196Z,13.60
2023-04-12T13:39:44.525Z,13.48
2023-04-12T13:42:10.904Z,13.55
2023-04-12T13:44:37.264Z,13.51
2023-04-12T13:47:03.862Z,13.49
2023-04-12T13:49:30.203Z,13.57
2023-04-12T13:51:56.671Z,13.63
2023-04-12T13:54:23.279Z,13.83
2023-04-12T13:56:49.583Z,14.02
2023-04-12T13:59:15.981Z,14.04
2023-04-12T14:01:42.546Z,13.91
2023-04-12T14:04:09.204Z,13.82
2023-04-12T14:06:36.416Z,13.84
2023-04-12T14:09:02.765Z,13.90
2023-04-12T14:11:29.106Z,13.74
2023-04-12T14:13:55.617Z,13.68
2023-04-12T14:16:22.006Z,13.64
2023-04-12T14:18:48.321Z,13.63
2023-04-12T14:21:14.657Z,13.61
2023-04-12T14:23:41.509Z,13.66
2023-04-12T14:26:07.833Z,13.70
2023-04-12T14:28:35.364Z,13.61
2023-04-12T14:31:03.573Z,13.64
2023-04-12T14:33:31.341Z,13.74
2023-04-12T14:35:58.045Z,13.71
2023-04-12T14:38:24.391Z,13.71
2023-04-12T14:40:51.605Z,13.72
2023-04-12T14:43:18.025Z,13.62
2023-04-12T14:45:44.346Z,13.51
2023-04-12T14:48:10.935Z,13.44
2023-04-12T14:50:37.303Z,13.49
2023-04-12T14:53:03.713Z,13.44
2023-04-12T14:55:30.411Z,13.45
2023-04-12T14:57:56.718Z,13.37
2023-04-12T15:00:23.256Z,13.30
2023-04-12T15:02:49.867Z,13.29
2023-04-12T15:05:16.434Z,13.30
2023-04-12T15:07:42.884Z,13.20
2023-04-12T15:10:09.730Z,13.10
2023-04-12T15:12:37.197Z,12.98
2023-04-12T15:15:06.221Z,12.85
2023-04-12T15:17:34.065Z,12.73
2023-04-12T15:20:08.348Z,12.76
2023-04-12T15:22:39.192Z,12.68
2023-04-12T15:25:06.624Z,12.68
2023-04-12T15:27:33.108Z,12.70
2023-04-12T15:30:00.555Z,12.66
2023-04-12T15:32:27.735Z,12.56
2023-04-12T15:34:58.139Z,12.50
2023-04-12T15:37:25.491Z,12.35
2023-04-12T15:39:52.396Z,12.31
2023-04-12T15:42:19.212Z,12.16
2023-04-12T15:44:45.870Z,12.11
2023-04-12T15:47:12.529Z,12.21
2023-04-12T15:49:39.743Z,12.19
2023-04-12T15:52:06.395Z,12.22
2023-04-12T15:54:32.724Z,12.29
2023-04-12T15:57:02.525Z,12.39
2023-04-12T15:59:29.974Z,12.44
2023-04-12T16:01:58.581Z,12.40
2023-04-12T16:04:26.850Z,12.27
2023-04-12T16:06:53.224Z,12.43
2023-04-12T16:09:22.211Z,12.37
2023-04-12T16:11:48.758Z,12.20
2023-04-12T16:14:15.493Z,12.10
2023-04-12T16:16:41.982Z,12.03
2023-04-12T16:19:08.458Z,12.15
2023-04-12T16:21:35.866Z,11.98
2023-04-12T16:24:02.191Z,11.75
2023-04-12T16:26:29.591Z,11.76
2023-04-12T16:28:57.328Z,11.67
2023-04-12T16:31:25.024Z,11.67
2023-04-12T16:33:51.659Z,11.68
2023-04-12T16:36:18.470Z,11.63
2023-04-12T16:38:49.328Z,11.46
2023-04-12T16:41:17.217Z,11.50
2023-04-12T16:43:45.395Z,11.55
2023-04-12T16:46:12.072Z,11.54
2023-04-12T16:48:42.047Z,11.49
2023-04-12T16:51:08.738Z,11.47
2023-04-12T16:53:36.545Z,11.46
2023-04-12T16:56:02.930Z,11.65
2023-04-12T16:58:29.328Z,11.68
2023-04-12T17:00:56.881Z,11.71
2023-04-12T17:03:24.138Z,11.62
2023-04-12T17:05:50.796Z,11.63
2023-04-12T17:08:17.447Z,11.71
2023-04-12T17:10:43.913Z,11.76
2023-04-12T17:13:10.287Z,11.80
2023-04-12T17:15:36.618Z,11.86
2023-04-12T17:18:10.948Z,11.88
2023-04-12T17:20:38.117Z,11.85
2023-04-12T17:23:05.112Z,11.89
2023-04-12T17:25:32.102Z,11.69
2023-04-12T17:28:02.962Z,11.65
2023-04-12T17:30:29.795Z,11.64
2023-04-12T17:32:56.417Z,11.63
2023-04-12T17:35:22.886Z,11.63
2023-04-12T17:37:49.337Z,11.70
2023-04-12T17:40:16.070Z,11.66
2023-04-12T17:42:43.584Z,11.63
2023-04-12T17:45:12.413Z,11.54
2023-04-12T17:47:39.674Z,11.58
2023-04-12T17:50:08.238Z,11.59
2023-04-12T17:52:34.640Z,11.29
2023-04-12T17:55:01.176Z,11.14
2023-04-12T17:57:27.641Z,10.62
2023-04-12T17:59:54.030Z,10.21
2023-04-12T18:02:20.705Z,9.74
2023-04-12T18:04:48.204Z,9.56
2023-04-12T18:07:16.407Z,9.44
2023-04-12T18:09:44.561Z,9.56
2023-04-12T18:12:12.214Z,9.11
2023-04-12T18:14:40.407Z,9.17
2023-04-12T18:17:07.281Z,9.31
2023-04-12T18:19:33.922Z,9.37
2023-04-12T18:22:00.375Z,9.24
2023-04-12T18:24:26.956Z,8.90
2023-04-12T18:26:53.471Z,9.19
2023-04-12T18:29:19.984Z,9.19
2023-04-12T18:31:46.523Z,9.40
2023-04-12T18:34:13.906Z,9.28
2023-04-12T18:36:42.152Z,9.48
2023-04-12T18:39:08.842Z,9.20
2023-04-12T18:41:35.750Z,9.00
2023-04-12T18:44:02.742Z,8.96
2023-04-12T18:46:29.594Z,9.13
2023-04-12T18:48:56.241Z,9.27
2023-04-12T18:51:23.204Z,9.39
2023-04-12T18:53:50.496Z,9.59
2023-04-12T18:56:22.892Z,9.16
2023-04-12T18:58:55.728Z,9.25
2023-04-12T19:01:23.401Z,9.07
2023-04-12T19:03:50.105Z,9.31
2023-04-12T19:06:16.972Z,9.60
2023-04-12T19:08:43.433Z,9.60
2023-04-12T19:11:09.986Z,9.22
2023-04-12T19:13:37.160Z,9.42
2023-04-12T19:16:07.307Z,9.13
2023-04-12T19:18:34.272Z,9.39
2023-04-12T19:21:01.024Z,9.35
2023-04-12T19:23:27.433Z,9.34
2023-04-12T19:25:54.419Z,9.33
2023-04-12T19:28:20.971Z,9.25
2023-04-12T19:30:47.309Z,9.23
2023-04-12T19:33:13.651Z,9.43
2023-04-12T19:35:40.573Z,9.26
2023-04-12T19:38:08.254Z,9.11
2023-04-12T19:40:34.748Z,8.87
2023-04-12T19:43:01.139Z,9.01
2023-04-12T19:45:28.683Z,9.13
2023-04-12T19:47:55.862Z,9.24
2023-04-12T19:50:22.957Z,9.29
2023-04-12T19:52:49.362Z,9.29
2023-04-12T19:55:16.261Z,9.46
2023-04-12T19:57:43.020Z,9.58
2023-04-12T20:00:20.544Z,9.71
2023-04-12T20:02:48.844Z,9.53
2023-04-12T20:05:17.891Z,9.54
2023-04-12T20:07:45.119Z,9.54
2023-04-12T20:10:13.428Z,9.55
2023-04-12T20:12:39.894Z,9.54
2023-04-12T20:15:11.596Z,9.49
2023-04-12T20:17:42.647Z,9.53
2023-04-12T20:20:17.167Z,9.54
2023-04-12T20:22:46.029Z,9.53
2023-04-12T20:25:13.032Z,9.65
2023-04-12T20:27:39.402Z,9.72
2023-04-12T20:30:07.101Z,9.57
2023-04-12T20:32:35.618Z,9.30
2023-04-12T20:35:05.490Z,9.20
2023-04-12T20:37:32.562Z,9.04
2023-04-12T20:39:59.412Z,8.88
2023-04-12T20:42:26.251Z,8.63
2023-04-12T20:44:53.145Z,8.56
2023-04-12T20:47:19.690Z,8.61
2023-04-12T20:49:46.148Z,8.54
2023-04-12T20:52:16.596Z,8.54
2023-04-12T20:54:42.973Z,8.56
2023-04-12T20:57:10.573Z,8.65
2023-04-12T20:59:38.552Z,8.74
2023-04-12T21:02:05.084Z,8.44
2023-04-12T21:04:35.837Z,8.18
2023-04-12T21:07:02.735Z,8.04
2023-04-12T21:09:30.044Z,7.81
2023-04-12T21:11:57.796Z,7.81
2023-04-12T21:14:24.251Z,7.68
2023-04-12T21:16:50.634Z,7.60
2023-04-12T21:19:18.280Z,7.58
2023-04-12T21:21:45.988Z,7.45
2023-04-12T21:24:13.060Z,7.51
2023-04-12T21:26:40.115Z,7.62
2023-04-12T21:29:06.455Z,7.65
2023-04-12T21:31:32.900Z,7.63
2023-04-12T21:33:59.690Z,7.58
2023-04-12T21:36:30.203Z,7.68
2023-04-12T21:38:58.642Z,7.88
2023-04-12T21:41:25.159Z,8.04
2023-04-12T21:43:52.126Z,7.80
2023-04-12T21:46:18.739Z,8.08
2023-04-12T21:48:45.152Z,8.22
2023-04-12T21:51:11.494Z,8.48
2023-04-12T21:53:38.004Z,8.35
2023-04-12T21:56:04.802Z,8.21
2023-04-12T21:58:33.065Z,8.26
2023-04-12T22:00:59.702Z,8.27
2023-04-12T22:03:26.169Z,8.08
2023-04-12T22:06:03.719Z,8.03
2023-04-12T22:08:32.600Z,7.91
2023-04-12T22:11:00.099Z,7.93
2023-04-12T22:13:26.735Z,8.01
2023-04-12T22:15:53.069Z,8.04
2023-04-12T22:18:19.654Z,7.97
2023-04-12T22:20:46.038Z,7.85
2023-04-12T22:23:13.724Z,7.94
2023-04-12T22:25:40.087Z,8.09
2023-04-12T22:28:06.524Z,7.88
2023-04-12T22:30:32.970Z,7.89
2023-04-12T22:32:59.881Z,7.76
2023-04-12T22:35:26.968Z,7.72
2023-04-12T22:37:53.356Z,7.84
2023-04-12T22:40:19.963Z,7.87
2023-04-12T22:42:48.121Z,7.96
2023-04-12T22:45:16.180Z,8.16
2023-04-12T22:47:43.808Z,8.33
2023-04-12T22:50:12.491Z,8.35
2023-04-12T22:52:39.681Z,8.35
2023-04-12T22:55:08.291Z,8.45
2023-04-12T22:57:36.329Z,8.40
2023-04-12T23:00:05.694Z,8.41
2023-04-12T23:02:33.297Z,8.43
2023-04-12T23:05:00.432Z,8.38
2023-04-12T23:07:29.688Z,8.40
2023-04-12T23:09:56.798Z,8.35
2023-04-12T23:12:23.806Z,8.34
2023-04-12T23:14:50.842Z,8.25
2023-04-12T23:17:19.434Z,8.36
2023-04-12T23:19:45.817Z,8.57
2023-04-12T23:22:21.595Z,8.60
2023-04-12T23:24:50.891Z,8.48
2023-04-12T23:27:18.192Z,8.42
2023-04-12T23:29:44.520Z,8.39
2023-04-12T23:32:12.015Z,8.30
2023-04-12T23:34:38.348Z,8.28
2023-04-12T23:37:04.684Z,8.30
2023-04-12T23:39:31.264Z,8.50
2023-04-12T23:41:57.580Z,8.37
2023-04-12T23:44:25.038Z,8.20
2023-04-12T23:46:51.490Z,8.12
2023-04-12T23:49:17.904Z,8.08
2023-04-12T23:51:44.349Z,8.09
2023-04-12T23:54:11.072Z,8.11
2023-04-12T23:56:37.421Z,8.12
2023-04-12T23:59:03.803Z,8.10
